Back to Top

Language: 

My Weather Underground Personal Weather Station Historical Data with Graphs...

Delerius Weather Station Historical Data
Daily Summary for August 18, 2017 Units:  English    Metric   Both
« Previous Day
Next Day »
Daily Weekly Monthly Yearly Custom
  High: Low: Average:
Temperature: 65.7 °F 51.4 °F 58.8 °F
Dew Point: 56.8 °F 47.6 °F 50.9 °F
Humidity: 93 % 56 % 76 %
Wind Speed: 16.0 mph 0.0 mph 8.5 mph
Wind Gust: 27.0 mph - -
Wind:- - WSW
Pressure: 29.77 in 29.66 in -
Precipitation: 0.01 in    
Historical Graphs
 
 
Tabular Data for August 18, 2017
Time Temperature Dew Point Pressure Wind Wind Speed Wind Gust Humidity Rainfall Rate (Hourly) solar Conditions
00:00 58.8 °F 56.5 °F 29.72 in SSE 3.0 mph 7.0 mph 92 % 0.03 in 0 W/m2
00:05 58.8 °F 56.5 °F 29.72 in South 3.0 mph 7.0 mph 92 % 0.02 in 0 W/m2
00:10 58.8 °F 56.5 °F 29.72 in South 3.0 mph 7.0 mph 92 % 0.01 in 0 W/m2
00:15 58.8 °F 56.8 °F 29.72 in South 3.0 mph 6.0 mph 93 % 0.01 in 0 W/m2
00:20 58.8 °F 56.8 °F 29.72 in South 1.0 mph 5.0 mph 93 % 0.00 in 0 W/m2
00:25 58.6 °F 56.6 °F 29.72 in South 1.0 mph 6.0 mph 93 % 0.00 in 0 W/m2
00:30 58.6 °F 56.6 °F 29.72 in SSW 2.0 mph 8.0 mph 93 % 0.00 in 0 W/m2
00:31 58.6 °F 56.6 °F 29.72 in SSW 2.0 mph 8.0 mph 93 % 0.00 in 0 W/m2
00:36 58.5 °F 56.1 °F 29.72 in SSW 3.0 mph 8.0 mph 92 % 0.00 in 0 W/m2
00:41 58.3 °F 56.0 °F 29.72 in SSW 2.0 mph 7.0 mph 92 % 0.00 in 0 W/m2
00:46 58.1 °F 55.8 °F 29.72 in SW 2.0 mph 7.0 mph 92 % 0.00 in 0 W/m2
00:51 57.7 °F 55.1 °F 29.72 in SW 5.0 mph 12.0 mph 91 % 0.00 in 0 W/m2
00:56 57.6 °F 54.6 °F 29.71 in SW 7.0 mph 15.0 mph 90 % 0.00 in 0 W/m2
01:01 57.6 °F 54.3 °F 29.71 in SSW 8.0 mph 15.0 mph 89 % 0.00 in 0 W/m2
01:06 57.4 °F 54.2 °F 29.71 in SSW 7.0 mph 14.0 mph 89 % 0.00 in 0 W/m2
01:11 57.2 °F 54.0 °F 29.71 in SSW 7.0 mph 12.0 mph 89 % 0.00 in 0 W/m2
01:16 57.0 °F 54.1 °F 29.71 in SSW 7.0 mph 12.0 mph 90 % 0.00 in 0 W/m2
01:21 57.0 °F 54.1 °F 29.71 in SSW 7.0 mph 12.0 mph 90 % 0.00 in 0 W/m2
01:26 56.8 °F 53.9 °F 29.70 in SSW 7.0 mph 12.0 mph 90 % 0.00 in 0 W/m2
01:31 56.8 °F 53.9 °F 29.70 in SSW 8.0 mph 16.0 mph 90 % 0.00 in 0 W/m2
01:36 56.8 °F 53.9 °F 29.70 in SSW 9.0 mph 19.0 mph 90 % 0.00 in 0 W/m2
01:41 56.8 °F 53.9 °F 29.70 in SW 10.0 mph 19.0 mph 90 % 0.00 in 0 W/m2
01:46 56.8 °F 53.6 °F 29.70 in SW 9.0 mph 14.0 mph 89 % 0.00 in 0 W/m2
01:51 56.7 °F 53.5 °F 29.70 in SW 9.0 mph 16.0 mph 89 % 0.01 in 0 W/m2
01:56 56.7 °F 53.5 °F 29.70 in SW 9.0 mph 16.0 mph 89 % 0.01 in 0 W/m2
02:01 56.5 °F 53.3 °F 29.70 in SW 9.0 mph 15.0 mph 89 % 0.01 in 0 W/m2
02:06 56.5 °F 53.3 °F 29.70 in SW 9.0 mph 18.0 mph 89 % 0.01 in 0 W/m2
02:11 56.5 °F 53.3 °F 29.70 in SW 10.0 mph 18.0 mph 89 % 0.01 in 0 W/m2
02:16 56.7 °F 53.1 °F 29.70 in SW 10.0 mph 18.0 mph 88 % 0.01 in 0 W/m2
02:19 56.7 °F 53.1 °F 29.70 in SW 10.0 mph 16.0 mph 88 % 0.01 in 0 W/m2
02:24 56.7 °F 53.1 °F 29.69 in SW 8.0 mph 14.0 mph 88 % 0.01 in 0 W/m2
02:29 56.7 °F 53.1 °F 29.69 in SW 7.0 mph 13.0 mph 88 % 0.01 in 0 W/m2
02:34 56.7 °F 53.1 °F 29.69 in SW 7.0 mph 12.0 mph 88 % 0.01 in 0 W/m2
02:37 56.5 °F 53.0 °F 29.69 in SW 7.0 mph 12.0 mph 88 % 0.01 in 0 W/m2
02:42 56.5 °F 53.0 °F 29.69 in SW 6.0 mph 11.0 mph 88 % 0.01 in 0 W/m2
02:47 56.5 °F 53.0 °F 29.69 in SW 8.0 mph 14.0 mph 88 % 0.00 in 0 W/m2
02:48 56.5 °F 53.0 °F 29.69 in SW 8.0 mph 14.0 mph 88 % 0.00 in 0 W/m2
02:53 56.7 °F 53.1 °F 29.68 in SW 9.0 mph 14.0 mph 88 % 0.00 in 0 W/m2
02:58 56.5 °F 53.0 °F 29.68 in SW 8.0 mph 13.0 mph 88 % 0.00 in 0 W/m2
03:03 56.5 °F 53.0 °F 29.68 in SW 8.0 mph 13.0 mph 88 % 0.00 in 0 W/m2
03:08 56.5 °F 53.0 °F 29.68 in SW 8.0 mph 13.0 mph 88 % 0.00 in 0 W/m2
03:13 56.5 °F 53.0 °F 29.68 in SW 8.0 mph 12.0 mph 88 % 0.00 in 0 W/m2
03:18 56.5 °F 53.0 °F 29.68 in SW 8.0 mph 13.0 mph 88 % 0.00 in 0 W/m2
03:23 56.7 °F 53.1 °F 29.68 in SW 8.0 mph 13.0 mph 88 % 0.00 in 0 W/m2
03:28 56.7 °F 53.1 °F 29.68 in SW 7.0 mph 12.0 mph 88 % 0.00 in 0 W/m2
03:33 56.8 °F 53.3 °F 29.68 in SW 8.0 mph 12.0 mph 88 % 0.00 in 0 W/m2
03:38 56.8 °F 53.3 °F 29.68 in SW 7.0 mph 12.0 mph 88 % 0.00 in 0 W/m2
03:43 56.8 °F 53.3 °F 29.68 in SSW 7.0 mph 11.0 mph 88 % 0.00 in 0 W/m2
03:48 56.8 °F 53.0 °F 29.68 in SSW 6.0 mph 10.0 mph 87 % 0.00 in 0 W/m2
03:53 56.8 °F 53.0 °F 29.68 in SSW 6.0 mph 12.0 mph 87 % 0.00 in 0 W/m2
03:58 56.8 °F 53.0 °F 29.68 in South 7.0 mph 15.0 mph 87 % 0.00 in 0 W/m2
04:03 56.8 °F 53.0 °F 29.68 in SSW 7.0 mph 15.0 mph 87 % 0.00 in 0 W/m2
04:08 56.8 °F 53.0 °F 29.68 in SSW 7.0 mph 14.0 mph 87 % 0.00 in 0 W/m2
04:13 56.7 °F 52.8 °F 29.68 in SSW 7.0 mph 11.0 mph 87 % 0.00 in 0 W/m2
04:18 56.7 °F 52.8 °F 29.67 in SSW 7.0 mph 12.0 mph 87 % 0.00 in 0 W/m2
04:20 56.7 °F 52.8 °F 29.67 in SSW 7.0 mph 12.0 mph 87 % 0.00 in 0 W/m2
04:24 56.7 °F 52.8 °F 29.67 in SSW 6.0 mph 10.0 mph 87 % 0.00 in 0 W/m2
04:25 56.7 °F 52.8 °F 29.67 in SSW 6.0 mph 10.0 mph 87 % 0.00 in 0 W/m2
04:27 56.7 °F 53.1 °F 29.67 in SSW 6.0 mph 13.0 mph 88 % 0.00 in 0 W/m2
04:32 56.7 °F 53.1 °F 29.67 in SSW 7.0 mph 13.0 mph 88 % 0.00 in 0 W/m2
04:36 56.7 °F 53.1 °F 29.67 in SSW 7.0 mph 13.0 mph 88 % 0.00 in 0 W/m2
04:41 56.7 °F 53.1 °F 29.67 in SW 6.0 mph 9.0 mph 88 % 0.00 in 0 W/m2
04:47 56.7 °F 53.1 °F 29.67 in SSW 7.0 mph 12.0 mph 88 % 0.00 in 0 W/m2
04:51 56.7 °F 53.1 °F 29.67 in SSW 8.0 mph 12.0 mph 88 % 0.00 in 0 W/m2
04:56 56.7 °F 53.1 °F 29.66 in SW 8.0 mph 11.0 mph 88 % 0.00 in 0 W/m2
05:01 56.7 °F 53.1 °F 29.67 in SW 8.0 mph 12.0 mph 88 % 0.00 in 0 W/m2
05:06 56.8 °F 53.6 °F 29.66 in SW 8.0 mph 13.0 mph 89 % 0.00 in 0 W/m2
05:11 57.0 °F 53.5 °F 29.66 in SW 8.0 mph 15.0 mph 88 % 0.00 in 0 W/m2
05:17 57.0 °F 53.5 °F 29.66 in SW 8.0 mph 16.0 mph 88 % 0.00 in 0 W/m2
05:21 57.0 °F 53.5 °F 29.66 in SW 9.0 mph 16.0 mph 88 % 0.00 in 0 W/m2
05:26 57.0 °F 53.8 °F 29.66 in SW 8.0 mph 16.0 mph 89 % 0.00 in 0 W/m2
05:32 56.8 °F 53.6 °F 29.66 in SW 7.0 mph 11.0 mph 89 % 0.00 in 0 W/m2
05:37 56.7 °F 53.5 °F 29.66 in WSW 7.0 mph 11.0 mph 89 % 0.00 in 0 W/m2
05:42 56.7 °F 53.5 °F 29.66 in WSW 8.0 mph 13.0 mph 89 % 0.00 in 0 W/m2
05:47 56.7 °F 53.5 °F 29.67 in WSW 7.0 mph 13.0 mph 89 % 0.00 in 0 W/m2
05:52 56.5 °F 53.3 °F 29.67 in WSW 8.0 mph 18.0 mph 89 % 0.00 in 0 W/m2
05:57 56.5 °F 53.0 °F 29.67 in WSW 9.0 mph 18.0 mph 88 % 0.00 in 5 W/m2
06:02 56.5 °F 52.7 °F 29.67 in WSW 10.0 mph 18.0 mph 87 % 0.00 in 9 W/m2
06:07 56.3 °F 52.5 °F 29.67 in WSW 9.0 mph 18.0 mph 87 % 0.00 in 9 W/m2
06:12 56.3 °F 52.2 °F 29.67 in WSW 9.0 mph 14.0 mph 86 % 0.00 in 9 W/m2
06:17 56.3 °F 52.2 °F 29.68 in WSW 9.0 mph 15.0 mph 86 % 0.00 in 11 W/m2
06:22 56.3 °F 52.2 °F 29.68 in WSW 10.0 mph 19.0 mph 86 % 0.00 in 16 W/m2
06:27 56.5 °F 52.0 °F 29.68 in WSW 11.0 mph 21.0 mph 85 % 0.00 in 18 W/m2
06:32 56.5 °F 52.0 °F 29.68 in WSW 12.0 mph 22.0 mph 85 % 0.00 in 16 W/m2
06:37 56.5 °F 51.7 °F 29.68 in WSW 12.0 mph 22.0 mph 84 % 0.00 in 32 W/m2
06:42 56.5 °F 51.7 °F 29.68 in WSW 11.0 mph 18.0 mph 84 % 0.00 in 37 W/m2
06:47 56.5 °F 51.7 °F 29.68 in WSW 10.0 mph 18.0 mph 84 % 0.00 in 40 W/m2
06:52 56.5 °F 51.7 °F 29.68 in WSW 10.0 mph 16.0 mph 84 % 0.00 in 28 W/m2
06:57 56.5 °F 51.7 °F 29.68 in WSW 10.0 mph 18.0 mph 84 % 0.00 in 26 W/m2
07:02 56.5 °F 51.7 °F 29.69 in WSW 9.0 mph 18.0 mph 84 % 0.00 in 35 W/m2
07:07 56.5 °F 51.7 °F 29.69 in WSW 10.0 mph 18.0 mph 84 % 0.00 in 70 W/m2
07:12 56.5 °F 51.7 °F 29.69 in WSW 10.0 mph 21.0 mph 84 % 0.00 in 74 W/m2
07:17 56.8 °F 51.7 °F 29.69 in WSW 11.0 mph 24.0 mph 83 % 0.00 in 176 W/m2
07:22 57.0 °F 51.9 °F 29.69 in WSW 13.0 mph 24.0 mph 83 % 0.00 in 178 W/m2
07:27 57.2 °F 51.8 °F 29.69 in West 13.0 mph 22.0 mph 82 % 0.00 in 197 W/m2
07:32 57.4 °F 51.6 °F 29.69 in WSW 13.0 mph 21.0 mph 81 % 0.00 in 176 W/m2
07:37 57.4 °F 51.6 °F 29.69 in WSW 12.0 mph 21.0 mph 81 % 0.00 in 72 W/m2
07:42 57.2 °F 51.1 °F 29.69 in West 14.0 mph 25.0 mph 80 % 0.00 in 227 W/m2
07:47 57.2 °F 51.1 °F 29.69 in West 16.0 mph 25.0 mph 80 % 0.00 in 237 W/m2
07:52 57.4 °F 51.6 °F 29.69 in West 15.0 mph 25.0 mph 81 % 0.00 in 251 W/m2
07:57 57.6 °F 51.8 °F 29.69 in West 15.0 mph 24.0 mph 81 % 0.00 in 262 W/m2
08:02 57.6 °F 51.8 °F 29.69 in West 14.0 mph 24.0 mph 81 % 0.00 in 272 W/m2
08:07 57.7 °F 51.6 °F 29.69 in West 12.0 mph 21.0 mph 80 % 0.00 in 309 W/m2
08:12 58.1 °F 52.0 °F 29.70 in West 11.0 mph 20.0 mph 80 % 0.00 in 315 W/m2
08:17 58.3 °F 52.1 °F 29.70 in WSW 10.0 mph 20.0 mph 80 % 0.00 in 320 W/m2
08:22 58.6 °F 52.1 °F 29.70 in West 11.0 mph 19.0 mph 79 % 0.00 in 339 W/m2
08:27 58.6 °F 51.8 °F 29.70 in West 12.0 mph 21.0 mph 78 % 0.00 in 334 W/m2
08:32 58.8 °F 51.6 °F 29.70 in West 12.0 mph 21.0 mph 77 % 0.00 in 350 W/m2
08:37 58.8 °F 51.3 °F 29.70 in West 13.0 mph 23.0 mph 76 % 0.00 in 387 W/m2
08:43 59.0 °F 51.4 °F 29.70 in WSW 13.0 mph 23.0 mph 76 % 0.00 in 374 W/m2
08:48 59.2 °F 51.3 °F 29.71 in West 13.0 mph 22.0 mph 75 % 0.00 in 334 W/m2
08:53 59.2 °F 51.6 °F 29.71 in WSW 13.0 mph 22.0 mph 76 % 0.00 in 411 W/m2
08:58 59.2 °F 51.6 °F 29.71 in WSW 13.0 mph 22.0 mph 76 % 0.00 in 434 W/m2
09:03 59.4 °F 51.4 °F 29.71 in WSW 13.0 mph 21.0 mph 75 % 0.00 in 506 W/m2
09:08 59.5 °F 51.2 °F 29.71 in WSW 13.0 mph 23.0 mph 74 % 0.00 in 468 W/m2
09:13 59.7 °F 51.0 °F 29.71 in WSW 14.0 mph 24.0 mph 73 % 0.00 in 475 W/m2
09:18 59.7 °F 51.0 °F 29.71 in West 16.0 mph 26.0 mph 73 % 0.00 in 490 W/m2
09:23 60.1 °F 51.4 °F 29.72 in West 15.0 mph 26.0 mph 73 % 0.00 in 510 W/m2
09:28 60.4 °F 51.7 °F 29.71 in WSW 13.0 mph 23.0 mph 73 % 0.00 in 541 W/m2
09:33 60.4 °F 51.4 °F 29.72 in WSW 12.0 mph 23.0 mph 72 % 0.00 in 527 W/m2
09:38 61.0 °F 51.9 °F 29.72 in WSW 12.0 mph 19.0 mph 72 % 0.00 in 663 W/m2
09:43 61.2 °F 51.3 °F 29.72 in WSW 13.0 mph 25.0 mph 70 % 0.00 in 392 W/m2
09:48 61.2 °F 51.3 °F 29.72 in WSW 14.0 mph 25.0 mph 70 % 0.00 in 619 W/m2
09:53 61.3 °F 51.5 °F 29.72 in WSW 13.0 mph 23.0 mph 70 % 0.00 in 659 W/m2
09:58 61.5 °F 51.6 °F 29.72 in WSW 13.0 mph 23.0 mph 70 % 0.00 in 610 W/m2
10:03 62.2 °F 52.3 °F 29.72 in WSW 13.0 mph 24.0 mph 70 % 0.00 in 629 W/m2
10:08 62.1 °F 51.0 °F 29.72 in WSW 13.0 mph 26.0 mph 67 % 0.00 in 624 W/m2
10:13 62.1 °F 50.6 °F 29.72 in WSW 15.0 mph 27.0 mph 66 % 0.00 in 633 W/m2
10:18 62.1 °F 50.2 °F 29.72 in WSW 16.0 mph 27.0 mph 65 % 0.00 in 640 W/m2
10:24 61.9 °F 50.4 °F 29.72 in WSW 16.0 mph 26.0 mph 66 % 0.00 in 666 W/m2
10:29 62.2 °F 51.5 °F 29.71 in West 13.0 mph 23.0 mph 68 % 0.00 in 710 W/m2
10:34 62.6 °F 50.7 °F 29.72 in West 12.0 mph 22.0 mph 65 % 0.00 in 680 W/m2
10:39 62.8 °F 50.0 °F 29.72 in West 14.0 mph 22.0 mph 63 % 0.00 in 747 W/m2
10:44 62.8 °F 50.0 °F 29.72 in West 14.0 mph 22.0 mph 63 % 0.00 in 671 W/m2
10:49 63.0 °F 51.0 °F 29.72 in West 13.0 mph 22.0 mph 65 % 0.00 in 779 W/m2
10:54 63.3 °F 50.9 °F 29.71 in West 12.0 mph 21.0 mph 64 % 0.00 in 838 W/m2
10:59 63.3 °F 50.9 °F 29.72 in West 12.0 mph 20.0 mph 64 % 0.00 in 153 W/m2
11:04 63.1 °F 50.3 °F 29.71 in West 11.0 mph 20.0 mph 63 % 0.00 in 141 W/m2
11:09 62.8 °F 49.6 °F 29.72 in West 12.0 mph 25.0 mph 62 % 0.00 in 251 W/m2
11:14 63.0 °F 49.7 °F 29.71 in WSW 13.0 mph 25.0 mph 62 % 0.00 in 260 W/m2
11:19 63.5 °F 49.8 °F 29.71 in WSW 13.0 mph 23.0 mph 61 % 0.00 in 898 W/m2
11:24 63.7 °F 50.0 °F 29.71 in WSW 13.0 mph 23.0 mph 61 % 0.00 in 819 W/m2
11:29 63.9 °F 48.8 °F 29.71 in WSW 14.0 mph 26.0 mph 58 % 0.00 in 863 W/m2
11:34 64.4 °F 49.3 °F 29.71 in WSW 14.0 mph 26.0 mph 58 % 0.00 in 851 W/m2
11:39 64.0 °F 48.5 °F 29.71 in WSW 13.0 mph 26.0 mph 57 % 0.00 in 308 W/m2
11:44 63.9 °F 47.9 °F 29.71 in WSW 13.0 mph 26.0 mph 56 % 0.00 in 220 W/m2
11:49 63.5 °F 49.4 °F 29.71 in WSW 11.0 mph 19.0 mph 60 % 0.00 in 283 W/m2
11:54 63.1 °F 49.0 °F 29.71 in WSW 12.0 mph 21.0 mph 60 % 0.00 in 285 W/m2
11:59 63.0 °F 49.3 °F 29.71 in WSW 11.0 mph 21.0 mph 61 % 0.00 in 891 W/m2
12:04 63.1 °F 49.5 °F 29.71 in WSW 11.0 mph 18.0 mph 61 % 0.00 in 139 W/m2
12:06 63.3 °F 49.6 °F 29.71 in WSW 11.0 mph 18.0 mph 61 % 0.00 in 135 W/m2
12:11 63.1 °F 49.5 °F 29.71 in WSW 10.0 mph 16.0 mph 61 % 0.00 in 851 W/m2
12:16 63.5 °F 49.4 °F 29.71 in WSW 10.0 mph 19.0 mph 60 % 0.00 in 376 W/m2
12:21 63.3 °F 49.2 °F 29.71 in WSW 11.0 mph 20.0 mph 60 % 0.00 in 304 W/m2
12:26 63.1 °F 49.5 °F 29.72 in WSW 12.0 mph 22.0 mph 61 % 0.00 in 394 W/m2
12:31 63.0 °F 48.9 °F 29.71 in WSW 13.0 mph 22.0 mph 60 % 0.00 in 338 W/m2
12:36 62.8 °F 49.6 °F 29.72 in WSW 12.0 mph 20.0 mph 62 % 0.00 in 401 W/m2
12:41 62.8 °F 49.6 °F 29.72 in WSW 12.0 mph 22.0 mph 62 % 0.00 in 561 W/m2
12:46 63.1 °F 49.0 °F 29.71 in WSW 14.0 mph 26.0 mph 60 % 0.00 in 933 W/m2
12:51 63.3 °F 49.2 °F 29.71 in SW 15.0 mph 26.0 mph 60 % 0.00 in 928 W/m2
12:56 63.9 °F 49.2 °F 29.71 in WSW 15.0 mph 24.0 mph 59 % 0.00 in 789 W/m2
13:01 64.0 °F 49.0 °F 29.71 in WSW 14.0 mph 21.0 mph 58 % 0.00 in 833 W/m2
13:06 64.8 °F 49.2 °F 29.71 in WSW 13.0 mph 21.0 mph 57 % 0.00 in 907 W/m2
13:11 65.1 °F 50.0 °F 29.71 in WSW 13.0 mph 23.0 mph 58 % 0.00 in 554 W/m2
13:16 65.5 °F 51.2 °F 29.71 in West 12.0 mph 23.0 mph 60 % 0.00 in 1102 W/m2
13:21 65.7 °F 51.4 °F 29.72 in WNW 10.0 mph 16.0 mph 60 % 0.00 in 1102 W/m2
13:26 64.9 °F 50.7 °F 29.72 in WNW 10.0 mph 16.0 mph 60 % 0.00 in 257 W/m2
13:31 64.4 °F 50.7 °F 29.71 in WNW 10.0 mph 18.0 mph 61 % 0.00 in 381 W/m2
13:36 64.2 °F 49.1 °F 29.71 in West 11.0 mph 24.0 mph 58 % 0.00 in 673 W/m2
13:41 63.9 °F 48.8 °F 29.71 in West 14.0 mph 24.0 mph 58 % 0.00 in 221 W/m2
13:46 63.1 °F 48.6 °F 29.72 in West 14.0 mph 23.0 mph 59 % 0.00 in 151 W/m2
13:52 62.2 °F 48.6 °F 29.72 in WSW 12.0 mph 22.0 mph 61 % 0.00 in 107 W/m2
13:57 61.5 °F 48.4 °F 29.72 in WSW 13.0 mph 22.0 mph 62 % 0.00 in 97 W/m2
14:02 61.0 °F 48.7 °F 29.72 in West 13.0 mph 22.0 mph 64 % 0.00 in 107 W/m2
14:07 60.3 °F 48.4 °F 29.73 in WSW 11.0 mph 19.0 mph 65 % 0.00 in 123 W/m2
14:12 59.9 °F 49.3 °F 29.72 in WSW 10.0 mph 19.0 mph 68 % 0.00 in 313 W/m2
14:17 59.7 °F 49.9 °F 29.73 in WSW 8.0 mph 18.0 mph 70 % 0.00 in 232 W/m2
14:22 59.7 °F 49.9 °F 29.73 in WSW 8.0 mph 16.0 mph 70 % 0.00 in 167 W/m2
14:27 59.5 °F 50.1 °F 29.72 in West 10.0 mph 18.0 mph 71 % 0.00 in 149 W/m2
14:32 59.2 °F 49.8 °F 29.73 in West 12.0 mph 21.0 mph 71 % 0.00 in 120 W/m2
14:37 58.6 °F 49.3 °F 29.72 in West 12.0 mph 21.0 mph 71 % 0.00 in 83 W/m2
14:42 58.3 °F 49.3 °F 29.72 in West 10.0 mph 21.0 mph 72 % 0.00 in 84 W/m2
14:47 58.1 °F 49.1 °F 29.72 in West 10.0 mph 18.0 mph 72 % 0.00 in 162 W/m2
14:52 58.1 °F 49.5 °F 29.72 in West 8.0 mph 14.0 mph 73 % 0.00 in 220 W/m2
14:57 58.3 °F 49.7 °F 29.73 in West 8.0 mph 14.0 mph 73 % 0.00 in 148 W/m2
15:02 58.3 °F 49.7 °F 29.73 in WSW 8.0 mph 14.0 mph 73 % 0.00 in 107 W/m2
15:07 58.3 °F 49.3 °F 29.73 in WSW 7.0 mph 13.0 mph 72 % 0.00 in 77 W/m2
15:12 58.3 °F 48.9 °F 29.73 in WSW 8.0 mph 14.0 mph 71 % 0.00 in 91 W/m2
15:17 58.1 °F 49.5 °F 29.73 in WSW 8.0 mph 14.0 mph 73 % 0.00 in 192 W/m2
15:22 57.9 °F 49.3 °F 29.73 in SW 8.0 mph 14.0 mph 73 % 0.00 in 387 W/m2
15:27 58.3 °F 50.4 °F 29.72 in SW 9.0 mph 14.0 mph 75 % 0.00 in 643 W/m2
15:32 59.0 °F 50.4 °F 29.72 in SW 8.0 mph 14.0 mph 73 % 0.00 in 810 W/m2
15:37 59.7 °F 50.7 °F 29.72 in SW 8.0 mph 14.0 mph 72 % 0.00 in 782 W/m2
15:42 61.0 °F 51.1 °F 29.72 in SW 7.0 mph 12.0 mph 70 % 0.00 in 800 W/m2
15:47 62.1 °F 51.4 °F 29.72 in WSW 7.0 mph 12.0 mph 68 % 0.00 in 733 W/m2
15:52 63.1 °F 51.2 °F 29.72 in WSW 7.0 mph 11.0 mph 65 % 0.00 in 677 W/m2
15:57 63.5 °F 50.2 °F 29.72 in WSW 9.0 mph 21.0 mph 62 % 0.00 in 276 W/m2
16:02 63.3 °F 49.6 °F 29.72 in West 10.0 mph 21.0 mph 61 % 0.00 in 225 W/m2
16:07 63.3 °F 49.6 °F 29.72 in West 10.0 mph 20.0 mph 61 % 0.00 in 209 W/m2
16:12 62.8 °F 49.6 °F 29.72 in West 12.0 mph 21.0 mph 62 % 0.00 in 271 W/m2
16:18 62.2 °F 49.1 °F 29.72 in West 12.0 mph 21.0 mph 62 % 0.00 in 216 W/m2
16:22 62.1 °F 49.7 °F 29.72 in West 10.0 mph 19.0 mph 64 % 0.00 in 355 W/m2
16:28 62.1 °F 49.3 °F 29.72 in West 10.0 mph 18.0 mph 63 % 0.00 in 348 W/m2
16:33 62.1 °F 49.7 °F 29.72 in WSW 10.0 mph 18.0 mph 64 % 0.00 in 225 W/m2
16:38 61.9 °F 49.6 °F 29.72 in WSW 10.0 mph 16.0 mph 64 % 0.00 in 141 W/m2
16:43 61.9 °F 50.0 °F 29.72 in WSW 8.0 mph 16.0 mph 65 % 0.00 in 244 W/m2
16:48 62.2 °F 50.7 °F 29.72 in West 9.0 mph 19.0 mph 66 % 0.00 in 612 W/m2
16:53 63.0 °F 50.6 °F 29.72 in West 10.0 mph 19.0 mph 64 % 0.00 in 566 W/m2
16:58 63.7 °F 50.8 °F 29.72 in West 9.0 mph 16.0 mph 63 % 0.00 in 529 W/m2
17:03 64.0 °F 49.9 °F 29.72 in West 10.0 mph 16.0 mph 60 % 0.00 in 137 W/m2
17:05 64.0 °F 49.9 °F 29.71 in West 10.0 mph 16.0 mph 60 % 0.00 in 482 W/m2
17:10 63.9 °F 49.2 °F 29.71 in WSW 10.0 mph 16.0 mph 59 % 0.00 in 526 W/m2
17:15 64.2 °F 49.1 °F 29.72 in West 12.0 mph 22.0 mph 58 % 0.00 in 336 W/m2
17:20 63.7 °F 49.1 °F 29.72 in West 13.0 mph 22.0 mph 59 % 0.00 in 146 W/m2
17:25 63.0 °F 48.9 °F 29.71 in West 13.0 mph 21.0 mph 60 % 0.00 in 151 W/m2
17:30 62.4 °F 48.8 °F 29.72 in West 13.0 mph 21.0 mph 61 % 0.00 in 100 W/m2
17:35 62.1 °F 49.3 °F 29.72 in West 11.0 mph 19.0 mph 63 % 0.00 in 128 W/m2
17:40 62.1 °F 49.7 °F 29.72 in West 10.0 mph 16.0 mph 64 % 0.00 in 325 W/m2
17:45 61.9 °F 49.6 °F 29.72 in West 11.0 mph 19.0 mph 64 % 0.00 in 236 W/m2
17:50 62.1 °F 50.2 °F 29.72 in West 10.0 mph 19.0 mph 65 % 0.00 in 401 W/m2
17:55 62.4 °F 50.1 °F 29.72 in West 9.0 mph 18.0 mph 64 % 0.00 in 79 W/m2
18:00 62.4 °F 49.7 °F 29.72 in West 9.0 mph 15.0 mph 63 % 0.00 in 374 W/m2
18:05 62.2 °F 49.5 °F 29.72 in West 9.0 mph 15.0 mph 63 % 0.00 in 88 W/m2
18:10 61.9 °F 49.6 °F 29.72 in West 10.0 mph 15.0 mph 64 % 0.00 in 134 W/m2
18:15 61.5 °F 49.2 °F 29.72 in West 9.0 mph 16.0 mph 64 % 0.00 in 165 W/m2
18:20 61.5 °F 49.2 °F 29.72 in West 9.0 mph 18.0 mph 64 % 0.00 in 109 W/m2
18:25 61.3 °F 49.5 °F 29.72 in West 9.0 mph 18.0 mph 65 % 0.00 in 288 W/m2
18:30 61.3 °F 49.9 °F 29.72 in West 9.0 mph 15.0 mph 66 % 0.00 in 162 W/m2
18:35 61.2 °F 50.1 °F 29.72 in WSW 8.0 mph 15.0 mph 67 % 0.00 in 88 W/m2
18:40 61.0 °F 50.3 °F 29.72 in West 6.0 mph 11.0 mph 68 % 0.00 in 102 W/m2
18:45 61.2 °F 50.5 °F 29.72 in West 6.0 mph 11.0 mph 68 % 0.00 in 199 W/m2
18:50 61.3 °F 50.7 °F 29.73 in West 6.0 mph 11.0 mph 68 % 0.00 in 178 W/m2
18:55 61.5 °F 50.9 °F 29.73 in West 6.0 mph 9.0 mph 68 % 0.00 in 160 W/m2
19:00 61.7 °F 51.0 °F 29.73 in West 5.0 mph 10.0 mph 68 % 0.00 in 63 W/m2
19:05 61.5 °F 50.5 °F 29.73 in West 6.0 mph 11.0 mph 67 % 0.00 in 35 W/m2
19:10 61.2 °F 50.5 °F 29.73 in WSW 6.0 mph 11.0 mph 68 % 0.00 in 37 W/m2
19:15 61.0 °F 50.3 °F 29.73 in West 7.0 mph 10.0 mph 68 % 0.00 in 65 W/m2
19:20 60.4 °F 50.2 °F 29.73 in West 6.0 mph 10.0 mph 69 % 0.00 in 37 W/m2
19:25 60.3 °F 50.4 °F 29.73 in West 5.0 mph 9.0 mph 70 % 0.00 in 21 W/m2
19:30 60.1 °F 50.6 °F 29.73 in WSW 4.0 mph 8.0 mph 71 % 0.00 in 19 W/m2
19:35 59.7 °F 50.7 °F 29.73 in WSW 3.0 mph 7.0 mph 72 % 0.00 in 19 W/m2
19:40 59.4 °F 50.7 °F 29.73 in WSW 3.0 mph 5.0 mph 73 % 0.00 in 19 W/m2
19:45 59.2 °F 50.5 °F 29.73 in WSW 2.0 mph 5.0 mph 73 % 0.00 in 16 W/m2
19:50 59.0 °F 50.7 °F 29.72 in WSW 2.0 mph 5.0 mph 74 % 0.00 in 14 W/m2
19:55 58.6 °F 50.7 °F 29.73 in SW 3.0 mph 6.0 mph 75 % 0.00 in 14 W/m2
20:00 58.3 °F 51.1 °F 29.73 in SW 4.0 mph 6.0 mph 77 % 0.00 in 14 W/m2
20:05 57.9 °F 50.8 °F 29.73 in SW 4.0 mph 6.0 mph 77 % 0.00 in 12 W/m2
20:10 57.6 °F 50.8 °F 29.74 in SW 4.0 mph 10.0 mph 78 % 0.00 in 9 W/m2
20:11 57.6 °F 50.8 °F 29.74 in SW 4.0 mph 10.0 mph 78 % 0.00 in 9 W/m2
20:16 57.4 °F 50.2 °F 29.74 in WSW 4.0 mph 10.0 mph 77 % 0.00 in 7 W/m2
20:21 57.2 °F 50.1 °F 29.74 in WSW 3.0 mph 6.0 mph 77 % 0.00 in 7 W/m2
20:26 57.0 °F 49.9 °F 29.74 in WSW 4.0 mph 11.0 mph 77 % 0.00 in 5 W/m2
20:31 56.8 °F 49.4 °F 29.74 in WSW 6.0 mph 11.0 mph 76 % 0.00 in 0 W/m2
20:36 56.7 °F 48.5 °F 29.74 in WSW 7.0 mph 12.0 mph 74 % 0.00 in 0 W/m2
20:41 56.7 °F 48.5 °F 29.74 in WSW 7.0 mph 12.0 mph 74 % 0.00 in 0 W/m2
20:46 56.5 °F 48.3 °F 29.75 in WSW 6.0 mph 11.0 mph 74 % 0.00 in 0 W/m2
20:51 56.3 °F 48.1 °F 29.74 in WSW 5.0 mph 9.0 mph 74 % 0.00 in 0 W/m2
20:56 56.1 °F 48.3 °F 29.74 in WSW 5.0 mph 8.0 mph 75 % 0.00 in 0 W/m2
21:01 55.9 °F 48.1 °F 29.74 in WSW 4.0 mph 8.0 mph 75 % 0.00 in 0 W/m2
21:06 55.8 °F 48.3 °F 29.75 in WSW 3.0 mph 6.0 mph 76 % 0.00 in 0 W/m2
21:11 55.6 °F 48.1 °F 29.75 in WSW 4.0 mph 6.0 mph 76 % 0.00 in 0 W/m2
21:16 55.4 °F 48.3 °F 29.75 in WSW 5.0 mph 7.0 mph 77 % 0.00 in 0 W/m2
21:21 55.2 °F 48.5 °F 29.75 in WSW 5.0 mph 7.0 mph 78 % 0.00 in 0 W/m2
21:26 55.0 °F 48.3 °F 29.75 in WSW 4.0 mph 7.0 mph 78 % 0.00 in 0 W/m2
21:31 54.9 °F 48.1 °F 29.75 in WSW 2.0 mph 5.0 mph 78 % 0.00 in 0 W/m2
21:36 54.9 °F 48.8 °F 29.75 in WSW 1.0 mph 5.0 mph 80 % 0.00 in 0 W/m2
21:41 54.7 °F 48.6 °F 29.75 in Calm   3.0 mph 80 % 0.00 in 0 W/m2
21:46 54.3 °F 48.3 °F 29.75 in Calm   3.0 mph 80 % 0.00 in 0 W/m2
21:51 54.1 °F 48.1 °F 29.75 in Calm   1.0 mph 80 % 0.00 in 0 W/m2
21:56 53.8 °F 48.1 °F 29.75 in Calm   4.0 mph 81 % 0.00 in 0 W/m2
22:01 53.6 °F 47.9 °F 29.75 in Calm   4.0 mph 81 % 0.00 in 0 W/m2
22:07 53.2 °F 47.9 °F 29.76 in Calm   2.0 mph 82 % 0.00 in 0 W/m2
22:12 53.1 °F 47.7 °F 29.75 in Calm   2.0 mph 82 % 0.00 in 0 W/m2
22:17 52.9 °F 47.9 °F 29.76 in Calm   4.0 mph 83 % 0.00 in 0 W/m2
22:22 52.9 °F 47.9 °F 29.76 in Calm   4.0 mph 83 % 0.00 in 0 W/m2
22:27 52.7 °F 48.0 °F 29.76 in Calm   3.0 mph 84 % 0.00 in 0 W/m2
22:32 52.5 °F 47.8 °F 29.76 in Calm   2.0 mph 84 % 0.00 in 0 W/m2
22:37 52.3 °F 47.6 °F 29.75 in Calm     84 % 0.00 in 0 W/m2
22:42 52.3 °F 48.0 °F 29.76 in Calm   1.0 mph 85 % 0.00 in 0 W/m2
22:47 52.2 °F 47.8 °F 29.76 in Calm   1.0 mph 85 % 0.00 in 0 W/m2
22:52 52.0 °F 47.6 °F 29.76 in Calm   4.0 mph 85 % 0.00 in 0 W/m2
22:57 51.8 °F 47.7 °F 29.76 in Calm   4.0 mph 86 % 0.00 in 0 W/m2
23:02 51.6 °F 47.6 °F 29.77 in Calm   2.0 mph 86 % 0.00 in 0 W/m2
23:07 51.6 °F 47.9 °F 29.76 in Calm   4.0 mph 87 % 0.00 in 0 W/m2
23:12 51.4 °F 47.7 °F 29.77 in WSW 2.0 mph 7.0 mph 87 % 0.00 in 0 W/m2
23:17 51.4 °F 47.7 °F 29.77 in West 4.0 mph 9.0 mph 87 % 0.00 in 0 W/m2
23:22 51.4 °F 48.0 °F 29.77 in West 6.0 mph 12.0 mph 88 % 0.00 in 0 W/m2
23:27 51.8 °F 48.4 °F 29.77 in West 8.0 mph 14.0 mph 88 % 0.00 in 0 W/m2
23:32 52.0 °F 48.2 °F 29.77 in West 8.0 mph 14.0 mph 87 % 0.00 in 0 W/m2
23:37 52.2 °F 48.1 °F 29.77 in West 8.0 mph 15.0 mph 86 % 0.00 in 0 W/m2
23:42 52.5 °F 48.5 °F 29.77 in West 10.0 mph 16.0 mph 86 % 0.00 in 0 W/m2
23:47 52.7 °F 48.3 °F 29.77 in WSW 10.0 mph 16.0 mph 85 % 0.00 in 0 W/m2
23:52 52.9 °F 48.2 °F 29.77 in WSW 9.0 mph 16.0 mph 84 % 0.00 in 0 W/m2
23:57 52.9 °F 48.2 °F 29.77 in WSW 9.0 mph 14.0 mph 84 % 0.00 in 0 W/m2
Delerius-Weather
Compliments of Weather Underground - 2.25 mb

Data updates at regular intervals.